Time;durP1;ratioP1;P1;durP2;ratioP2;P2;SDS_P1;SDS_P2;PMS_P1;PMS_P2;Temp;Humidity;BMP_temperature;BMP_pressure;BME280_temperature;BME280_humidity;BME280_pressure;Samples;Min_cycle;Max_cycle;Signal;HPM_P1;HPM_P2
2022/11/22 00:00:17;;;;;;;;;;;9.40;63.70;;;4.64;100.00;93728.38;4958456;28;19910;-52
2022/11/22 00:02:44;;;;;;;;;;;9.40;63.80;;;4.66;100.00;93731.50;4979630;28;19933;-53
2022/11/22 00:05:10;;;;;;;;;;;9.40;63.80;;;4.66;100.00;93728.09;4967698;28;19909;-48
2022/11/22 00:07:37;;;;;;;;;;;9.50;63.90;;;4.68;100.00;93731.25;4965821;28;19913;-51
2022/11/22 00:10:10;;;;;;;;;;;9.50;63.90;;;4.72;100.00;93737.53;4968334;28;20004;-52
2022/11/22 00:12:36;;;;;;;;;;;9.40;63.90;;;4.72;100.00;93732.28;4955951;28;19918;-52
2022/11/22 00:15:02;;;;;;;;;;;9.50;64.00;;;4.69;100.00;93730.19;4984865;28;19928;-50
2022/11/22 00:17:28;;;;;;;;;;;9.50;64.00;;;4.68;100.00;93728.59;4965081;28;20018;-53
2022/11/22 00:19:53;;;;;;;;;;;9.50;64.00;;;4.69;100.00;93728.31;4969395;28;19943;-54
2022/11/22 00:22:22;;;;;;;;;;;9.50;64.00;;;4.66;100.00;93723.59;4964679;28;19952;-49
2022/11/22 00:24:52;;;;;;;;;;;9.40;63.90;;;4.62;100.00;93725.19;4979891;28;19910;-53
2022/11/22 00:27:19;;;;;;;;;;;9.40;63.90;;;4.58;100.00;93724.19;4982849;28;19909;-50
2022/11/22 00:29:48;;;;;;;;;;;9.40;64.00;;;4.57;100.00;93725.22;4963390;28;19956;-51
2022/11/22 00:32:14;;;;;;;;;;;9.40;64.10;;;4.55;100.00;93720.22;4966839;28;20149;-51
2022/11/22 00:34:40;;;;;;;;;;;9.40;64.10;;;4.56;100.00;93729.72;4979427;28;19917;-52
2022/11/22 00:37:09;;;;;;;;;;;9.40;64.10;;;4.57;100.00;93730.50;4980614;28;19980;-49
2022/11/22 00:39:34;;;;;;;;;;;9.40;64.20;;;4.57;100.00;93720.72;4981541;28;19968;-51
2022/11/22 00:42:02;;;;;;;;;;;9.40;64.30;;;4.56;100.00;93724.44;4980129;28;20612;-55
2022/11/22 00:44:28;;;;;;;;;;;9.30;64.30;;;4.58;100.00;93729.44;4981974;28;20373;-53
2022/11/22 00:46:57;;;;;;;;;;;9.30;64.40;;;4.62;100.00;93727.84;4963560;28;19916;-52
2022/11/22 00:49:22;;;;;;;;;;;9.30;64.40;;;4.63;100.00;93734.69;4967779;28;20293;-53
2022/11/22 00:51:48;;;;;;;;;;;9.40;64.50;;;4.64;100.00;93731.78;4980979;28;19916;-54
2022/11/22 00:54:20;;;;;;;;;;;9.40;64.50;;;4.68;100.00;93737.31;4980320;28;20498;-51
2022/11/22 00:56:46;;;;;;;;;;;9.30;64.50;;;4.69;100.00;93736.22;4980757;28;20044;-52
2022/11/22 00:59:11;;;;;;;;;;;9.40;64.70;;;4.71;100.00;93738.63;4965506;28;20000;-50
2022/11/22 01:01:37;;;;;;;;;;;9.40;64.70;;;4.72;100.00;93746.25;4979866;28;19968;-49
2022/11/22 01:04:03;;;;;;;;;;;9.40;64.80;;;4.73;100.00;93736.47;4982375;28;20012;-50
2022/11/22 01:06:32;;;;;;;;;;;9.40;64.80;;;4.73;100.00;93739.13;4985289;28;20384;-52
2022/11/22 01:08:58;;;;;;;;;;;9.40;64.80;;;4.75;100.00;93747.56;4965152;28;19956;-53
2022/11/22 01:11:24;;;;;;;;;;;9.50;64.80;;;4.77;100.00;93748.84;4968123;28;20504;-50
2022/11/22 01:13:50;;;;;;;;;;;9.50;64.90;;;4.79;100.00;93754.63;4983001;28;20024;-53
2022/11/22 01:16:16;;;;;;;;;;;9.50;64.90;;;4.81;100.00;93764.94;4981646;28;19929;-52
2022/11/22 01:18:44;;;;;;;;;;;9.50;64.90;;;4.80;100.00;93773.91;4968851;28;19948;-53
2022/11/22 01:21:11;;;;;;;;;;;9.60;64.90;;;4.81;100.00;93770.22;4966750;28;19909;-54
2022/11/22 01:23:37;;;;;;;;;;;9.60;64.90;;;4.81;100.00;93776.25;4977261;28;19980;-53
2022/11/22 01:26:07;;;;;;;;;;;9.60;64.90;;;4.82;100.00;93771.78;4979890;28;20423;-51
2022/11/22 01:28:34;;;;;;;;;;;9.60;65.00;;;4.85;100.00;93785.19;4963260;28;19982;-55
2022/11/22 01:31:03;;;;;;;;;;;9.60;65.00;;;4.86;100.00;93778.88;4978412;28;19913;-53
2022/11/22 01:33:29;;;;;;;;;;;9.60;65.00;;;4.88;100.00;93776.75;4978287;28;20024;-54
2022/11/22 01:36:00;;;;;;;;;;;9.60;65.00;;;4.89;100.00;93782.84;4968002;28;19913;-55
2022/11/22 01:38:26;;;;;;;;;;;9.60;65.00;;;4.88;100.00;93778.59;4978805;28;19910;-54
2022/11/22 01:40:52;;;;;;;;;;;9.70;65.00;;;4.90;100.00;93788.91;4979545;28;19944;-55
2022/11/22 01:43:26;;;;;;;;;;;9.70;65.00;;;4.89;100.00;93790.75;4980137;28;20011;-53
2022/11/22 01:46:37;;;;;;;;;;;9.70;65.00;;;4.90;100.00;93789.69;4966572;28;19917;-53
2022/11/22 01:49:21;;;;;;;;;;;9.70;65.00;;;4.92;100.00;93784.13;4946840;28;20471;-54
2022/11/22 01:51:56;;;;;;;;;;;9.70;65.00;;;4.90;100.00;93786.25;4981086;28;19948;-50
2022/11/22 01:54:28;;;;;;;;;;;9.70;65.00;;;4.93;100.00;93785.72;4976786;28;20457;-54
2022/11/22 01:57:03;;;;;;;;;;;9.70;65.00;;;4.92;100.00;93786.75;4983226;28;20475;-52
2022/11/22 01:59:36;;;;;;;;;;;9.70;65.00;;;4.89;100.00;93788.13;4965617;28;19974;-53
2022/11/22 02:02:05;;;;;;;;;;;9.70;65.00;;;4.92;100.00;93792.84;4982277;28;20004;-50
2022/11/22 02:04:35;;;;;;;;;;;9.70;65.00;;;4.91;100.00;93787.81;4968720;28;19909;-52
2022/11/22 02:07:31;;;;;;;;;;;9.70;65.00;;;4.92;100.00;93792.03;4983837;28;20337;-55
2022/11/22 02:09:56;;;;;;;;;;;9.70;65.00;;;4.91;100.00;93775.41;4952090;28;19949;-50
2022/11/22 02:12:30;;;;;;;;;;;9.70;65.10;;;4.88;100.00;93781.25;4965387;28;20320;-49
2022/11/22 02:14:58;;;;;;;;;;;9.70;65.10;;;4.87;100.00;93774.41;4984362;28;20818;-53
2022/11/22 02:17:25;;;;;;;;;;;9.70;65.20;;;4.87;100.00;93772.53;4983171;28;19909;-52
2022/11/22 02:19:52;;;;;;;;;;;9.70;65.20;;;4.83;100.00;93768.09;4983604;28;19909;-53
2022/11/22 02:22:52;;;;;;;;;;;9.60;65.30;;;4.78;100.00;93763.63;4984288;28;19909;-53
2022/11/22 02:25:25;;;;;;;;;;;9.70;65.30;;;4.74;100.00;93764.44;4984245;28;19941;-52
2022/11/22 02:27:51;;;;;;;;;;;9.60;65.30;;;4.74;100.00;93764.44;4967701;28;19909;-49
2022/11/22 02:30:18;;;;;;;;;;;9.60;65.40;;;4.73;100.00;93774.22;4985226;28;19936;-50
2022/11/22 02:32:44;;;;;;;;;;;9.60;65.50;;;4.73;100.00;93771.56;4984194;28;21216;-53
2022/11/22 02:35:25;;;;;;;;;;;9.60;65.60;;;4.74;100.00;93783.69;4950164;28;20692;-50
2022/11/22 02:37:58;;;;;;;;;;;9.50;65.60;;;4.72;100.00;93780.53;4985297;28;19909;-52
2022/11/22 02:40:29;;;;;;;;;;;9.50;65.70;;;4.70;100.00;93781.84;4971405;28;19941;-52
2022/11/22 02:43:41;;;;;;;;;;;9.50;65.80;;;4.75;100.00;93793.19;4968502;28;20292;-54
2022/11/22 02:46:11;;;;;;;;;;;9.50;66.00;;;4.74;100.00;93796.09;4964057;28;19913;-50
2022/11/22 02:48:41;;;;;;;;;;;9.50;66.00;;;4.77;100.00;93796.34;4969481;28;19937;-51
2022/11/22 02:51:07;;;;;;;;;;;9.50;66.00;;;4.77;100.00;93798.97;4985125;28;20495;-54
2022/11/22 02:53:36;;;;;;;;;;;9.50;66.10;;;4.77;100.00;93803.47;4967791;28;19909;-49
2022/11/22 02:56:02;;;;;;;;;;;9.50;66.10;;;4.78;100.00;93802.41;4981366;28;19927;-51
2022/11/22 02:58:28;;;;;;;;;;;9.50;66.10;;;4.78;100.00;93800.56;4982500;28;19917;-53
2022/11/22 03:00:54;;;;;;;;;;;9.50;66.10;;;4.78;100.00;93805.03;4983944;28;19963;-51
2022/11/22 03:03:20;;;;;;;;;;;9.50;66.10;;;4.79;100.00;93804.75;4985962;28;19914;-54
2022/11/22 03:05:48;;;;;;;;;;;9.50;66.10;;;4.80;100.00;93806.34;4968004;28;20383;-54
2022/11/22 03:08:17;;;;;;;;;;;9.50;66.10;;;4.77;100.00;93800.84;4968911;28;20379;-52
2022/11/22 03:10:46;;;;;;;;;;;9.50;66.10;;;4.74;100.00;93794.25;4984135;28;20111;-54
2022/11/22 03:13:11;;;;;;;;;;;9.50;66.10;;;4.74;100.00;93793.47;4981697;28;19913;-54
2022/11/22 03:15:37;;;;;;;;;;;9.50;66.20;;;4.76;100.00;93791.31;4982067;28;19925;-52
2022/11/22 03:18:04;;;;;;;;;;;9.50;66.20;;;4.78;100.00;93790.00;4963928;28;19910;-52
2022/11/22 03:20:31;;;;;;;;;;;9.50;66.20;;;4.77;100.00;93798.19;4981625;28;20399;-52
2022/11/22 03:22:59;;;;;;;;;;;9.50;66.20;;;4.74;100.00;93788.97;4984469;28;19913;-54
2022/11/22 03:25:26;;;;;;;;;;;9.50;66.30;;;4.74;100.00;93798.75;4987647;28;19916;-52
2022/11/22 03:27:58;;;;;;;;;;;9.50;66.30;;;4.74;100.00;93794.25;4983950;28;20634;-50
2022/11/22 03:30:26;;;;;;;;;;;9.50;66.30;;;4.77;100.00;93801.63;4981615;28;19917;-53
2022/11/22 03:32:52;;;;;;;;;;;9.50;66.40;;;4.77;100.00;93801.63;4965936;28;20452;-54
2022/11/22 03:35:18;;;;;;;;;;;9.50;66.40;;;4.78;100.00;93797.13;4966916;28;19920;-50
2022/11/22 03:37:56;;;;;;;;;;;9.50;66.40;;;4.79;100.00;93793.41;4967332;28;19909;-49
2022/11/22 03:40:21;;;;;;;;;;;9.50;66.50;;;4.77;100.00;93793.72;4985380;28;20028;-52
2022/11/22 03:42:50;;;;;;;;;;;9.50;66.50;;;4.81;100.00;93797.38;4969427;28;19913;-50
2022/11/22 03:45:16;;;;;;;;;;;9.50;66.50;;;4.83;100.00;93791.84;4968672;28;20296;-49
2022/11/22 03:47:41;;;;;;;;;;;9.50;66.50;;;4.86;100.00;93792.09;4958052;28;19913;-52
2022/11/22 03:50:08;;;;;;;;;;;9.50;66.50;;;4.88;100.00;93791.78;4983564;28;19909;-54
2022/11/22 03:52:34;;;;;;;;;;;9.50;67.20;;;4.87;100.00;93791.00;4982586;28;19910;-54
2022/11/22 03:55:02;;;;;;;;;;;9.60;66.50;;;4.89;100.00;93798.66;4982233;28;19916;-50
2022/11/22 03:57:28;;;;;;;;;;;9.60;66.50;;;4.85;100.00;93795.75;4981921;28;20326;-54
2022/11/22 03:59:54;;;;;;;;;;;9.60;66.40;;;4.87;100.00;93790.22;4981073;28;19914;-53
2022/11/22 04:02:20;;;;;;;;;;;9.60;66.40;;;4.90;100.00;93796.81;4996747;23;19930;-55
2022/11/22 04:04:45;;;;;;;;;;;9.60;66.40;;;4.89;100.00;93798.66;5003336;28;20067;-51
2022/11/22 04:07:11;;;;;;;;;;;9.60;66.50;;;4.88;100.00;93800.50;5003174;28;20343;-52
2022/11/22 04:09:41;;;;;;;;;;;9.60;66.40;;;4.87;100.00;93798.91;5003503;28;19920;-56
2022/11/22 04:12:07;;;;;;;;;;;9.60;66.40;;;4.84;100.00;93802.09;5003030;28;19912;-56
2022/11/22 04:17:39;;;;;;;;;;;9.60;66.40;;;4.82;100.00;93806.06;5002101;28;19959;-57
2022/11/22 04:23:22;;;;;;;;;;;9.60;66.50;;;4.87;100.00;93819.25;4987890;28;20400;-55
2022/11/22 04:25:52;;;;;;;;;;;9.60;66.60;;;4.83;100.00;93819.00;4969842;28;20430;-54
2022/11/22 04:28:28;;;;;;;;;;;9.60;66.60;;;4.86;100.00;93818.47;5003858;28;20399;-54
2022/11/22 04:33:38;;;;;;;;;;;9.60;66.70;;;4.93;100.00;93820.81;5002056;28;20385;-54
2022/11/22 04:36:04;;;;;;;;;;;9.60;66.70;;;4.92;100.00;93821.88;5003288;28;19944;-54
2022/11/22 04:38:30;;;;;;;;;;;9.60;66.70;;;4.90;100.00;93820.56;5003655;28;19909;-53
2022/11/22 04:40:55;;;;;;;;;;;9.60;66.70;;;4.92;100.00;93824.50;5003878;28;19915;-58
2022/11/22 04:46:14;;;;;;;;;;;9.60;66.60;;;4.90;100.00;93818.69;5001331;28;19939;-52
2022/11/22 04:48:43;;;;;;;;;;;9.60;66.60;;;4.92;100.00;93823.69;4999014;28;19952;-57
2022/11/22 04:53:58;;;;;;;;;;;9.60;66.60;;;4.95;100.00;93823.97;5001467;28;19928;-55
2022/11/22 04:56:23;;;;;;;;;;;9.60;66.70;;;4.96;100.00;93822.91;5001446;28;20267;-57
2022/11/22 04:58:50;;;;;;;;;;;9.60;66.70;;;4.96;100.00;93820.25;4997971;28;19913;-56
2022/11/22 05:01:17;;;;;;;;;;;9.60;66.60;;;4.96;100.00;93819.47;5005571;28;19921;-56
2022/11/22 05:03:42;;;;;;;;;;;9.60;66.70;;;4.96;100.00;93824.75;5002918;28;19908;-56
2022/11/22 05:06:12;;;;;;;;;;;9.70;66.70;;;4.93;100.00;93820.03;5004365;28;19913;-55
2022/11/22 05:08:38;;;;;;;;;;;9.70;66.70;;;4.95;100.00;93834.53;4995236;28;20407;-54
2022/11/22 05:11:03;;;;;;;;;;;9.60;66.60;;;4.86;100.00;93829.00;5000874;28;19920;-54
2022/11/22 05:13:35;;;;;;;;;;;9.60;66.70;;;4.88;100.00;93834.00;5001742;28;19921;-54
2022/11/22 05:16:03;;;;;;;;;;;9.60;66.70;;;4.87;100.00;93830.59;4996020;28;19967;-57
2022/11/22 05:18:30;;;;;;;;;;;9.60;66.80;;;4.81;100.00;93836.16;5001026;28;20344;-57
2022/11/22 05:20:57;;;;;;;;;;;9.60;66.80;;;4.79;100.00;93848.81;5001479;28;19909;-55
2022/11/22 05:26:09;;;;;;;;;;;9.50;66.70;;;4.79;100.00;93849.59;5002739;28;20421;-56
2022/11/22 05:28:38;;;;;;;;;;;9.50;66.70;;;4.79;100.00;93851.47;4996175;28;19936;-56
2022/11/22 05:31:10;;;;;;;;;;;9.50;66.90;;;4.79;100.00;93856.72;4999474;28;20008;-54
2022/11/22 05:33:39;;;;;;;;;;;9.50;66.90;;;4.76;100.00;93850.16;5000476;28;19917;-53
2022/11/22 05:36:06;;;;;;;;;;;9.40;67.60;;;4.70;100.00;93850.44;5002108;28;19913;-53
2022/11/22 05:38:37;;;;;;;;;;;9.40;66.90;;;4.64;100.00;93861.03;5001981;28;20644;-53
2022/11/22 05:41:05;;;;;;;;;;;9.40;66.90;;;4.69;100.00;93865.47;5000914;28;19916;-53
2022/11/22 05:43:32;;;;;;;;;;;9.40;67.00;;;4.71;100.00;93873.13;5004764;28;22771;-55
2022/11/22 05:46:26;;;;;;;;;;;9.40;67.00;;;4.68;100.00;93877.09;4997973;28;19913;-54
2022/11/22 05:48:55;;;;;;;;;;;9.40;67.10;;;4.67;100.00;93880.81;4970325;28;19916;-55
2022/11/22 05:51:25;;;;;;;;;;;9.40;67.10;;;4.65;100.00;93877.63;4996894;28;19936;-54
2022/11/22 05:53:54;;;;;;;;;;;9.30;67.10;;;4.68;100.00;93886.84;5001791;28;19909;-56
2022/11/22 05:56:22;;;;;;;;;;;9.30;67.10;;;4.68;100.00;93886.84;5001141;28;20004;-54
2022/11/22 05:58:51;;;;;;;;;;;9.40;67.20;;;4.64;100.00;93897.94;4999169;28;20739;-55
2022/11/22 06:01:21;;;;;;;;;;;9.30;67.10;;;4.64;100.00;93897.94;4983386;28;20010;-56
2022/11/22 06:03:48;;;;;;;;;;;9.40;67.20;;;4.63;100.00;93903.47;4982594;28;19920;-57
2022/11/22 06:06:17;;;;;;;;;;;9.30;67.20;;;4.62;100.00;93907.19;4987570;28;19925;-57
2022/11/22 06:08:46;;;;;;;;;;;9.30;67.20;;;4.61;100.00;93901.13;4985280;28;19909;-58
2022/11/22 06:11:26;;;;;;;;;;;9.30;67.30;;;4.66;100.00;93915.34;5003334;28;19909;-54
2022/11/22 06:13:59;;;;;;;;;;;9.30;67.30;;;4.61;100.00;93909.03;4998184;28;19937;-54
2022/11/22 06:16:26;;;;;;;;;;;9.30;67.30;;;4.62;100.00;93907.97;4995391;28;19921;-54
2022/11/22 06:18:56;;;;;;;;;;;9.30;67.30;;;4.62;100.00;93918.50;5000951;28;19941;-53
2022/11/22 06:21:24;;;;;;;;;;;9.30;68.10;;;4.66;100.00;93924.03;4983551;28;19917;-56
2022/11/22 06:23:52;;;;;;;;;;;9.40;67.40;;;4.67;100.00;93924.81;5002368;28;19916;-58
2022/11/22 06:26:26;;;;;;;;;;;9.30;67.40;;;4.68;100.00;93924.56;4996978;28;19917;-54
2022/11/22 06:28:56;;;;;;;;;;;9.30;67.40;;;4.69;100.00;93925.34;4977007;28;19928;-55
2022/11/22 06:31:25;;;;;;;;;;;9.40;67.40;;;4.64;100.00;93932.22;4994184;28;19912;-56
2022/11/22 06:33:55;;;;;;;;;;;9.30;67.40;;;4.68;100.00;93936.97;4995184;28;19913;-56
2022/11/22 06:36:28;;;;;;;;;;;9.40;67.50;;;4.66;100.00;93947.00;5000936;28;19949;-54
2022/11/22 06:38:54;;;;;;;;;;;9.40;67.40;;;4.68;100.00;93953.59;4996303;28;19913;-56
2022/11/22 06:41:36;;;;;;;;;;;9.40;67.40;;;4.68;100.00;93950.16;4999477;28;19920;-56
2022/11/22 06:44:08;;;;;;;;;;;9.30;67.30;;;4.61;100.00;93951.22;4998066;28;19982;-55
2022/11/22 06:46:35;;;;;;;;;;;9.40;67.40;;;4.61;100.00;93951.22;5000506;28;19966;-52
2022/11/22 06:49:04;;;;;;;;;;;9.40;67.40;;;4.59;100.00;93963.09;4995399;28;19948;-56
2022/11/22 06:51:32;;;;;;;;;;;9.30;67.40;;;4.60;100.00;93964.66;5003583;28;20307;-53
2022/11/22 06:53:58;;;;;;;;;;;9.30;67.40;;;4.59;100.00;93966.50;4987827;28;19958;-53
2022/11/22 06:56:36;;;;;;;;;;;9.30;67.50;;;4.57;100.00;93976.53;5007806;28;19917;-57
2022/11/22 06:59:04;;;;;;;;;;;9.30;67.50;;;4.60;100.00;93976.00;4991571;28;19987;-55
2022/11/22 07:01:33;;;;;;;;;;;9.30;67.50;;;4.61;100.00;93977.59;5004509;28;19921;-56
2022/11/22 07:04:00;;;;;;;;;;;9.30;67.50;;;4.58;100.00;93982.63;5011281;28;19909;-58
2022/11/22 07:06:34;;;;;;;;;;;9.30;67.50;;;4.56;100.00;93990.78;5013251;28;19913;-56
2022/11/22 07:09:03;;;;;;;;;;;9.30;67.50;;;4.54;100.00;93992.09;5009776;28;20337;-57
2022/11/22 07:11:31;;;;;;;;;;;9.30;67.50;;;4.56;100.00;93997.91;5008307;28;20008;-58
2022/11/22 07:13:59;;;;;;;;;;;9.30;67.50;;;4.59;100.00;93997.38;4994094;28;20382;-59
2022/11/22 07:16:25;;;;;;;;;;;9.30;67.50;;;4.57;100.00;93997.63;4994785;28;19924;-59
2022/11/22 07:18:51;;;;;;;;;;;9.30;67.40;;;4.55;100.00;94004.25;5010628;28;20299;-58
2022/11/22 07:21:23;;;;;;;;;;;9.30;67.50;;;4.56;100.00;94006.59;4991561;28;19921;-56
2022/11/22 07:23:56;;;;;;;;;;;9.30;68.30;;;4.55;100.00;93998.97;4992616;28;19917;-58
2022/11/22 07:26:24;;;;;;;;;;;9.30;67.50;;;4.53;100.00;93999.22;4987757;28;19909;-59
2022/11/22 07:28:53;;;;;;;;;;;9.30;67.40;;;4.55;100.00;93993.69;5007312;28;19913;-59
2022/11/22 07:31:22;;;;;;;;;;;9.30;67.40;;;4.57;100.00;94012.66;4998682;28;19909;-59
2022/11/22 07:33:48;;;;;;;;;;;9.30;67.40;;;4.59;100.00;94013.19;4989801;28;20380;-59
2022/11/22 07:36:18;;;;;;;;;;;9.30;67.40;;;4.55;99.89;94020.84;5000030;28;19913;-59
2022/11/22 07:38:46;;;;;;;;;;;9.30;67.40;;;4.55;99.78;94020.84;5008312;28;19935;-59
2022/11/22 07:41:13;;;;;;;;;;;9.30;67.40;;;4.58;100.00;94022.97;5008160;28;20011;-59
2022/11/22 07:43:40;;;;;;;;;;;9.30;67.30;;;4.57;100.00;94020.56;4998209;28;20004;-56
2022/11/22 07:46:41;;;;;;;;;;;9.30;67.40;;;4.62;99.80;94017.94;5007813;28;19914;-59
2022/11/22 07:49:11;;;;;;;;;;;9.30;67.40;;;4.61;99.82;94017.16;4949187;28;19937;-56
2022/11/22 07:51:37;;;;;;;;;;;9.40;67.40;;;4.66;99.78;94031.38;4996422;28;19935;-59
2022/11/22 07:54:05;;;;;;;;;;;9.40;67.40;;;4.66;99.47;94015.56;5007643;28;19909;-58
2022/11/22 07:56:33;;;;;;;;;;;9.50;67.40;;;4.71;99.27;94016.34;5007137;28;19919;-59
2022/11/22 07:59:04;;;;;;;;;;;9.50;67.30;;;4.79;99.58;94015.00;4993110;28;19923;-59
2022/11/22 08:01:29;;;;;;;;;;;9.50;67.30;;;4.80;99.55;94019.25;5010569;28;19917;-59
2022/11/22 08:03:58;;;;;;;;;;;9.60;67.20;;;4.82;99.42;94019.75;5011562;28;19909;-58
2022/11/22 08:06:24;;;;;;;;;;;9.60;67.20;;;4.86;99.27;94021.63;5028203;28;19919;-59
2022/11/22 08:08:50;;;;;;;;;;;9.60;67.10;;;4.91;99.19;94022.66;5009481;28;19913;-59
2022/11/22 08:11:18;;;;;;;;;;;9.70;67.10;;;4.91;99.24;94026.09;5011908;28;19909;-59
2022/11/22 08:13:46;;;;;;;;;;;9.70;67.10;;;4.95;98.92;94031.63;5010794;28;19913;-59
2022/11/22 08:16:16;;;;;;;;;;;9.70;67.00;;;4.97;98.83;94024.22;4994999;28;19942;-57
2022/11/22 08:18:47;;;;;;;;;;;9.80;67.00;;;4.99;98.60;94019.50;4995372;28;20328;-59
2022/11/22 08:21:15;;;;;;;;;;;9.80;67.00;;;5.00;98.37;94023.69;5010320;28;20007;-58
2022/11/22 08:23:42;;;;;;;;;;;9.80;66.90;;;5.00;98.54;94026.34;5012528;28;20375;-58
2022/11/22 08:26:13;;;;;;;;;;;9.80;66.90;;;5.00;98.69;94021.84;5008305;28;19916;-59
2022/11/22 08:28:43;;;;;;;;;;;9.90;66.90;;;5.02;98.01;94018.97;5011418;28;19914;-59
2022/11/22 08:31:18;;;;;;;;;;;9.90;67.60;;;5.04;98.12;94019.47;5010555;28;20436;-57
2022/11/22 08:33:54;;;;;;;;;;;10.00;66.70;;;5.05;97.89;94013.13;5020676;28;19909;-58
2022/11/22 08:36:23;;;;;;;;;;;10.00;66.60;;;5.13;98.05;94017.06;5011109;28;19913;-58
2022/11/22 08:38:51;;;;;;;;;;;10.10;66.60;;;5.18;97.61;94009.94;4997133;28;19921;-58
2022/11/22 08:41:17;;;;;;;;;;;10.10;66.50;;;5.12;96.40;94010.22;5026912;28;19909;-59
2022/11/22 08:43:49;;;;;;;;;;;10.20;66.40;;;5.14;95.34;94006.25;5004351;28;19996;-59
2022/11/22 08:46:18;;;;;;;;;;;10.30;66.30;;;5.24;95.67;94005.44;5008626;28;19917;-55
2022/11/22 08:48:45;;;;;;;;;;;10.30;66.20;;;5.17;94.11;94005.72;4990585;28;20027;-57
2022/11/22 08:51:14;;;;;;;;;;;10.40;66.10;;;5.16;93.69;94014.69;5009023;28;19909;-57
2022/11/22 08:53:43;;;;;;;;;;;10.40;65.90;;;5.18;94.33;94025.78;5026084;28;20335;-59
2022/11/22 08:56:14;;;;;;;;;;;10.40;65.80;;;5.30;94.12;94025.47;5016411;28;19947;-59
2022/11/22 08:58:41;;;;;;;;;;;10.40;65.80;;;5.31;93.29;94022.56;4990700;28;19909;-58
2022/11/22 09:01:14;;;;;;;;;;;10.40;65.80;;;5.21;92.40;94021.81;4993906;28;20404;-59
2022/11/22 09:03:43;;;;;;;;;;;10.40;65.70;;;5.25;92.02;94026.28;4981382;28;20417;-58
2022/11/22 09:06:15;;;;;;;;;;;10.40;65.60;;;5.24;91.78;94035.25;4980814;28;20339;-58
2022/11/22 09:08:44;;;;;;;;;;;10.40;65.50;;;5.25;91.60;94036.03;4991742;28;20404;-58
2022/11/22 09:11:14;;;;;;;;;;;10.40;66.20;;;5.24;91.03;94035.25;4971753;28;20000;-56
2022/11/22 09:13:41;;;;;;;;;;;10.40;65.40;;;5.29;91.35;94037.09;4978989;28;19948;-51
2022/11/22 09:16:27;;;;;;;;;;;10.40;65.30;;;5.37;90.10;94041.03;4975260;28;19921;-48
2022/11/22 09:18:54;;;;;;;;;;;10.50;65.30;;;5.34;90.12;94035.22;4970635;28;19913;-53
2022/11/22 09:21:20;;;;;;;;;;;10.50;65.20;;;5.31;89.49;94043.69;5002320;28;19917;-51
2022/11/22 09:23:48;;;;;;;;;;;10.60;65.00;;;5.40;88.86;94036.00;4998614;28;20330;-48
2022/11/22 09:26:20;;;;;;;;;;;10.70;64.80;;;5.47;88.17;94047.06;4984020;28;20012;-52
2022/11/22 09:28:46;;;;;;;;;;;10.80;64.60;;;5.40;87.65;94051.06;4995972;28;20008;-48
2022/11/22 09:31:19;;;;;;;;;;;10.90;64.30;;;5.47;88.01;94048.91;5001342;28;20008;-52
2022/11/22 09:33:49;;;;;;;;;;;10.90;63.90;;;5.58;88.27;94045.19;4991495;28;19917;-49
2022/11/22 09:36:29;;;;;;;;;;;11.00;63.80;;;5.57;86.49;94043.59;5005736;28;20015;-55
2022/11/22 09:38:56;;;;;;;;;;;11.10;63.60;;;5.56;86.07;94045.44;4991915;28;19910;-56
2022/11/22 09:41:59;;;;;;;;;;;11.20;63.30;;;5.62;85.99;94050.72;4986400;28;20319;-53
2022/11/22 09:45:04;;;;;;;;;;;11.20;63.10;;;5.61;85.90;94049.94;4988622;28;19949;-50
2022/11/22 09:48:06;;;;;;;;;;;11.20;62.80;;;5.71;85.23;94055.16;4990929;28;19909;-49
2022/11/22 09:50:53;;;;;;;;;;;11.30;62.80;;;5.77;85.34;94058.59;4988984;28;19910;-55
2022/11/22 09:53:54;;;;;;;;;;;11.40;62.70;;;5.84;85.38;94061.72;4989865;28;19917;-52
2022/11/22 09:56:25;;;;;;;;;;;11.40;62.60;;;5.89;85.51;94066.19;4988707;28;19914;-48
2022/11/22 09:59:24;;;;;;;;;;;11.50;62.40;;;5.93;83.39;94070.69;4991045;28;19916;-52
2022/11/22 10:02:29;;;;;;;;;;;11.60;62.30;;;5.84;83.65;94076.78;4971328;28;20291;-58
2022/11/22 10:05:16;;;;;;;;;;;11.60;61.60;;;6.01;82.82;94078.03;4989900;28;19932;-59
2022/11/22 10:07:56;;;;;;;;;;;11.60;61.80;;;6.08;83.58;94090.16;4988402;28;19920;-58
2022/11/22 10:10:42;;;;;;;;;;;11.60;61.70;;;6.12;82.27;94085.94;4990761;28;19920;-57
2022/11/22 10:13:21;;;;;;;;;;;11.70;61.70;;;6.07;81.50;94085.94;4972606;28;19944;-58
2022/11/22 10:16:02;;;;;;;;;;;11.80;61.50;;;6.13;80.71;94080.38;4989595;28;20445;-55
2022/11/22 10:19:20;;;;;;;;;;;11.70;61.30;;;5.98;79.58;94081.22;4989542;28;19918;-59
2022/11/22 10:21:46;;;;;;;;;;;11.80;61.30;;;6.15;81.43;94088.81;4982063;28;20048;-55
2022/11/22 10:24:18;;;;;;;;;;;11.80;61.10;;;6.14;80.68;94087.25;4985520;28;19913;-58
2022/11/22 10:26:45;;;;;;;;;;;11.80;60.90;;;6.26;80.38;94092.19;4973732;28;19913;-59
2022/11/22 10:30:06;;;;;;;;;;;11.90;60.90;;;6.28;79.94;94084.00;4992407;28;19910;-54
2022/11/22 10:32:41;;;;;;;;;;;11.90;60.90;;;6.18;80.22;94090.91;4981014;28;20008;-57
2022/11/22 10:35:28;;;;;;;;;;;12.00;60.80;;;6.20;79.45;94078.19;4973129;28;19992;-59
2022/11/22 10:38:45;;;;;;;;;;;12.00;60.60;;;6.20;79.68;94086.13;4990135;28;19917;-52
2022/11/22 10:41:44;;;;;;;;;;;12.00;60.40;;;6.30;79.76;94085.31;4987029;28;20017;-54
2022/11/22 10:44:30;;;;;;;;;;;12.00;60.20;;;6.25;78.42;94082.69;4989771;28;19944;-57
2022/11/22 10:47:14;;;;;;;;;;;12.00;60.20;;;6.23;79.48;94084.81;4989708;28;20347;-58
2022/11/22 10:50:11;;;;;;;;;;;12.00;60.00;;;6.26;78.84;94085.03;4989579;28;20392;-58
2022/11/22 10:53:17;;;;;;;;;;;12.10;59.90;;;6.34;79.33;94078.41;4991251;28;20462;-59
2022/11/22 10:55:59;;;;;;;;;;;12.10;59.80;;;6.26;77.36;94081.63;4989233;28;19978;-58
2022/11/22 10:58:55;;;;;;;;;;;12.20;59.50;;;6.25;76.62;94082.69;4979447;28;19936;-58
2022/11/22 11:01:54;;;;;;;;;;;12.20;59.40;;;6.36;77.48;94078.94;4994543;28;19917;-56
2022/11/22 11:04:23;;;;;;;;;;;12.20;59.10;;;6.41;77.89;94075.44;5006659;28;19918;-57
2022/11/22 11:06:59;;;;;;;;;;;12.20;58.90;;;6.40;77.82;94079.16;5008265;28;19909;-58
2022/11/22 11:09:36;;;;;;;;;;;12.30;58.80;;;6.53;76.55;94080.41;4994353;28;19940;-59
2022/11/22 11:12:16;;;;;;;;;;;12.30;58.80;;;6.52;76.49;94076.16;5007770;28;19909;-59
2022/11/22 11:15:15;;;;;;;;;;;12.40;58.80;;;6.53;75.30;94075.91;4985728;28;19910;-58
2022/11/22 11:18:13;;;;;;;;;;;12.40;58.60;;;6.51;75.47;94070.06;4992923;28;20368;-56
2022/11/22 11:20:42;;;;;;;;;;;12.50;58.50;;;6.51;74.97;94075.38;5007576;28;20047;-58
2022/11/22 11:23:11;;;;;;;;;;;12.50;58.30;;;6.51;74.55;94078.00;4991761;28;19913;-59
2022/11/22 11:25:42;;;;;;;;;;;12.60;58.20;;;6.55;72.51;94072.97;4992332;28;19909;-58
2022/11/22 11:28:26;;;;;;;;;;;12.60;58.00;;;6.59;72.27;94074.00;5018493;28;19928;-57
2022/11/22 11:31:07;;;;;;;;;;;12.70;57.80;;;6.70;73.33;94070.22;4991904;28;19918;-57
2022/11/22 11:33:37;;;;;;;;;;;12.70;57.60;;;6.74;72.26;94073.91;4989725;28;19931;-58
2022/11/22 11:36:23;;;;;;;;;;;12.70;57.60;;;6.46;70.82;94060.34;4978222;28;19918;-57
2022/11/22 11:39:16;;;;;;;;;;;12.70;57.20;;;6.54;71.30;94066.09;5005016;28;20304;-59
2022/11/22 11:41:42;;;;;;;;;;;12.70;56.80;;;6.59;71.97;94056.28;4990063;28;19909;-55
2022/11/22 11:44:30;;;;;;;;;;;12.70;56.60;;;6.73;71.37;94059.06;4991354;28;19920;-58
2022/11/22 11:47:00;;;;;;;;;;;12.70;56.60;;;6.89;71.59;94060.53;4990788;28;19910;-57
2022/11/22 11:49:34;;;;;;;;;;;12.80;56.60;;;6.91;70.25;94060.25;4970601;28;19917;-56
2022/11/22 11:52:07;;;;;;;;;;;12.90;56.60;;;6.89;69.72;94054.44;4990984;28;19949;-58
2022/11/22 11:54:49;;;;;;;;;;;13.00;56.50;;;6.91;70.31;94047.81;5005436;28;19913;-54
2022/11/22 11:57:42;;;;;;;;;;;13.00;56.30;;;6.88;69.05;94047.56;5002974;28;20016;-55
2022/11/22 12:00:33;;;;;;;;;;;13.10;56.20;;;7.01;71.47;94038.19;5001048;28;19971;-53
2022/11/22 12:03:10;;;;;;;;;;;13.10;55.90;;;7.01;70.15;94035.53;4991677;28;19995;-53
2022/11/22 12:05:36;;;;;;;;;;;13.10;55.60;;;7.15;69.58;94039.13;4997291;28;20363;-57
2022/11/22 12:08:29;;;;;;;;;;;13.10;55.70;;;7.11;69.57;94033.59;4994921;28;19997;-56